createdAt,value
2019-06-01T00:00:10.804Z,98883.00
2019-06-01T00:02:38.387Z,98881.10
2019-06-01T00:05:10.364Z,98885.17
2019-06-01T00:07:42.936Z,98881.34
2019-06-01T00:10:14.829Z,98881.22
2019-06-01T00:12:47.547Z,98884.22
2019-06-01T00:15:19.337Z,98879.31
2019-06-01T00:17:50.900Z,98881.73
2019-06-01T00:20:22.496Z,98877.41
2019-06-01T00:22:54.120Z,98878.84
2019-06-01T00:25:25.754Z,98876.22
2019-06-01T00:27:57.422Z,98869.41
2019-06-01T00:30:29.054Z,98874.06
2019-06-01T00:33:00.655Z,98867.72
2019-06-01T00:35:32.217Z,98866.19
2019-06-01T00:38:03.836Z,98865.94
2019-06-01T00:40:35.405Z,98863.02
2019-06-01T00:43:07.125Z,98865.78
2019-06-01T00:45:38.788Z,98864.58
2019-06-01T00:48:10.372Z,98862.92
2019-06-01T00:50:43.062Z,98859.09
2019-06-01T00:53:14.757Z,98858.02
2019-06-01T00:55:47.372Z,98856.45
2019-06-01T00:58:18.996Z,98847.48
2019-06-01T01:00:51.984Z,98856.22
2019-06-01T01:03:23.826Z,98851.55
2019-06-01T01:05:55.416Z,98852.85
2019-06-01T01:08:26.992Z,98850.00
2019-06-01T01:10:58.561Z,98843.42
2019-06-01T01:13:30.217Z,98846.52
2019-06-01T01:16:01.794Z,98851.77
2019-06-01T01:18:33.460Z,98854.19
2019-06-01T01:21:05.059Z,98859.31
2019-06-01T01:23:36.622Z,98856.91
2019-06-01T01:26:08.267Z,98861.09
2019-06-01T01:28:39.810Z,98862.77
2019-06-01T01:31:14.189Z,98856.05
2019-06-01T01:33:44.680Z,98852.10
2019-06-01T01:36:16.283Z,98852.84
2019-06-01T01:38:48.257Z,98855.45
2019-06-01T01:41:19.971Z,98860.95
2019-06-01T01:43:52.793Z,98859.52
2019-06-01T01:46:24.464Z,98862.39
2019-06-01T01:48:56.222Z,98861.19
2019-06-01T01:51:29.451Z,98853.16
2019-06-01T01:54:01.033Z,98856.39
2019-06-01T01:56:32.605Z,98855.30
2019-06-01T01:59:04.398Z,98853.02
2019-06-01T02:01:36.134Z,98850.96
2019-06-01T02:04:07.810Z,98857.20
2019-06-01T02:06:39.372Z,98852.63
2019-06-01T02:09:11.211Z,98855.36
2019-06-01T02:11:42.774Z,98848.45
2019-06-01T02:14:15.380Z,98855.02
2019-06-01T02:16:46.934Z,98845.19
2019-06-01T02:19:18.606Z,98850.94
2019-06-01T02:21:50.199Z,98853.19
2019-06-01T02:24:21.778Z,98846.88
2019-06-01T02:26:53.325Z,98847.45
2019-06-01T02:29:24.930Z,98854.59
2019-06-01T02:31:56.701Z,98845.88
2019-06-01T02:34:28.363Z,98848.95
2019-06-01T02:37:00.326Z,98845.73
2019-06-01T02:39:31.919Z,98845.95
2019-06-01T02:42:05.353Z,98842.62
2019-06-01T02:44:36.827Z,98836.39
2019-06-01T02:47:08.384Z,98833.61
2019-06-01T02:49:39.973Z,98833.73
2019-06-01T02:52:11.536Z,98830.84
2019-06-01T02:54:43.148Z,98837.18
2019-06-01T02:57:14.708Z,98831.66
2019-06-01T02:59:46.288Z,98832.60
2019-06-01T03:02:18.428Z,98835.34
2019-06-01T03:04:49.990Z,98840.81
2019-06-01T03:07:22.052Z,98842.72
2019-06-01T03:09:54.527Z,98848.55
2019-06-01T03:12:28.802Z,98847.34
2019-06-01T03:15:03.048Z,98850.56
2019-06-01T03:17:36.102Z,98850.67
2019-06-01T03:20:07.921Z,98849.47
2019-06-01T03:22:42.447Z,98851.61
2019-06-01T03:25:14.204Z,98846.84
2019-06-01T03:27:48.573Z,98846.02
2019-06-01T03:30:36.685Z,98849.09
2019-06-01T03:33:10.503Z,98843.84
2019-06-01T03:35:41.617Z,98845.48
2019-06-01T03:38:13.205Z,98841.66
2019-06-01T03:40:44.761Z,98844.13
2019-06-01T03:43:16.952Z,98834.45
2019-06-01T03:45:49.570Z,98836.03
2019-06-01T03:48:21.159Z,98841.05
2019-06-01T03:50:52.709Z,98840.57
2019-06-01T03:53:24.311Z,98837.01
2019-06-01T03:55:55.890Z,98835.47
2019-06-01T03:58:27.461Z,98834.98
2019-06-01T04:00:59.000Z,98833.94
2019-06-01T04:03:30.572Z,98833.72
2019-06-01T04:06:03.269Z,98834.55
2019-06-01T04:08:34.996Z,98836.38
2019-06-01T04:11:07.758Z,98835.41
2019-06-01T04:13:39.447Z,98838.56
2019-06-01T04:16:12.054Z,98843.11
2019-06-01T04:18:43.679Z,98839.39
2019-06-01T04:21:15.254Z,98835.61
2019-06-01T04:23:46.832Z,98838.72
2019-06-01T04:26:18.471Z,98842.44
2019-06-01T04:28:50.053Z,98842.09
2019-06-01T04:31:21.610Z,98840.93
2019-06-01T04:33:53.192Z,98842.28
2019-06-01T04:36:24.775Z,98845.02
2019-06-01T04:38:56.338Z,98839.45
2019-06-01T04:41:27.918Z,98845.19
2019-06-01T04:43:59.522Z,98844.02
2019-06-01T04:46:31.110Z,98842.97
2019-06-01T04:49:02.677Z,98852.16
2019-06-01T04:51:34.248Z,98847.88
2019-06-01T04:54:06.867Z,98853.98
2019-06-01T04:56:38.575Z,98850.78
2019-06-01T04:59:10.949Z,98847.56
2019-06-01T05:01:42.637Z,98852.73
2019-06-01T05:04:15.428Z,98848.31
2019-06-01T05:06:47.154Z,98847.47
2019-06-01T05:09:18.757Z,98847.70
2019-06-01T05:11:50.318Z,98850.23
2019-06-01T05:14:21.909Z,98851.67
2019-06-01T05:16:53.508Z,98852.02
2019-06-01T05:19:25.095Z,98854.42
2019-06-01T05:21:56.654Z,98860.68
2019-06-01T05:24:28.262Z,98857.54
2019-06-01T05:26:59.832Z,98859.56
2019-06-01T05:29:31.432Z,98860.64
2019-06-01T05:32:02.986Z,98868.39
2019-06-01T05:34:34.539Z,98867.41
2019-06-01T05:37:06.128Z,98866.88
2019-06-01T05:39:37.704Z,98869.94
2019-06-01T05:42:10.402Z,98870.56
2019-06-01T05:44:42.284Z,98859.72
2019-06-01T05:47:14.230Z,98862.15
2019-06-01T05:49:45.912Z,98864.48
2019-06-01T05:52:18.701Z,98868.76
2019-06-01T05:54:50.426Z,98868.00
2019-06-01T05:57:23.251Z,98874.16
2019-06-01T05:59:54.942Z,98872.50
2019-06-01T06:02:26.535Z,98870.34
2019-06-01T06:04:58.258Z,98874.56
2019-06-01T06:07:29.845Z,98874.55
2019-06-01T06:10:01.433Z,98875.02
2019-06-01T06:12:33.015Z,98871.27
2019-06-01T06:15:04.673Z,98877.62
2019-06-01T06:17:36.252Z,98874.33
2019-06-01T06:20:08.097Z,98871.65
2019-06-01T06:22:41.372Z,98878.78
2019-06-01T06:25:14.184Z,98876.52
2019-06-01T06:27:46.030Z,98876.27
2019-06-01T06:30:17.653Z,98882.84
2019-06-01T06:32:49.207Z,98877.51
2019-06-01T06:35:21.539Z,98873.85
2019-06-01T06:37:53.186Z,98872.33
2019-06-01T06:40:24.867Z,98871.70
2019-06-01T06:42:56.462Z,98875.22
2019-06-01T06:45:28.049Z,98873.42
2019-06-01T06:47:59.602Z,98877.88
2019-06-01T06:50:31.171Z,98877.21
2019-06-01T06:53:02.834Z,98875.86
2019-06-01T06:55:34.913Z,98880.26
2019-06-01T06:58:08.130Z,98880.75
2019-06-01T07:00:39.728Z,98868.81
2019-06-01T07:03:11.308Z,98874.69
2019-06-01T07:05:42.927Z,98874.52
2019-06-01T07:08:14.589Z,98875.39
2019-06-01T07:10:46.213Z,98871.54
2019-06-01T07:13:19.298Z,98871.12
2019-06-01T07:15:50.939Z,98874.98
2019-06-01T07:18:23.573Z,98871.30
2019-06-01T07:20:55.312Z,98872.55
2019-06-01T07:23:28.065Z,98872.72
2019-06-01T07:25:59.718Z,98866.76
2019-06-01T07:28:32.500Z,98879.80
2019-06-01T07:31:04.053Z,98875.02
2019-06-01T07:33:35.622Z,98883.94
2019-06-01T07:36:07.221Z,98870.53
2019-06-01T07:38:38.855Z,98873.15
2019-06-01T07:41:10.429Z,98879.16
2019-06-01T07:43:42.055Z,98872.17
2019-06-01T07:46:13.645Z,98869.53
2019-06-01T07:48:45.343Z,98873.11
2019-06-01T07:51:16.920Z,98868.22
2019-06-01T07:53:48.523Z,98873.65
2019-06-01T07:56:20.479Z,98862.53
2019-06-01T07:58:52.104Z,98857.77
2019-06-01T08:01:25.740Z,98860.87
2019-06-01T08:03:57.006Z,98860.45
2019-06-01T08:06:30.244Z,98857.89
2019-06-01T08:09:01.924Z,98858.00
2019-06-01T08:11:35.206Z,98861.77
2019-06-01T08:14:06.913Z,98864.69
2019-06-01T08:16:38.490Z,98860.44
2019-06-01T08:19:10.150Z,98858.67
2019-06-01T08:21:41.721Z,98853.30
2019-06-01T08:24:13.316Z,98855.38
2019-06-01T08:26:44.907Z,98850.78
2019-06-01T08:29:16.575Z,98851.59
2019-06-01T08:31:48.209Z,98847.97
2019-06-01T08:34:19.774Z,98854.11
2019-06-01T08:36:51.360Z,98844.37
2019-06-01T08:39:23.503Z,98847.47
2019-06-01T08:41:55.143Z,98842.08
2019-06-01T08:44:27.687Z,98836.47
2019-06-01T08:46:59.368Z,98835.97
2019-06-01T08:49:32.364Z,98832.04
2019-06-01T08:52:04.157Z,98825.58
2019-06-01T08:54:35.755Z,98825.28
2019-06-01T08:57:07.353Z,98823.34
2019-06-01T08:59:38.936Z,98815.59
2019-06-01T09:02:10.517Z,98817.25
2019-06-01T09:04:42.163Z,98811.14
2019-06-01T09:07:13.746Z,98806.38
2019-06-01T09:09:45.313Z,98814.95
2019-06-01T09:12:16.954Z,98815.66
2019-06-01T09:14:48.516Z,98810.14
2019-06-01T09:17:20.166Z,98810.46
2019-06-01T09:19:51.781Z,98804.37
2019-06-01T09:22:23.357Z,98795.09
2019-06-01T09:24:54.973Z,98795.92
2019-06-01T09:27:27.690Z,98800.14
2019-06-01T09:29:59.446Z,98798.16
2019-06-01T09:32:32.235Z,98797.44
2019-06-01T09:35:04.382Z,98800.41
2019-06-01T09:37:36.785Z,98796.09
2019-06-01T09:40:08.951Z,98801.99
2019-06-01T09:42:40.534Z,98800.75
2019-06-01T09:45:12.583Z,98795.47
2019-06-01T09:47:44.308Z,98798.98
2019-06-01T09:50:16.208Z,98804.88
2019-06-01T09:52:47.769Z,98797.72
2019-06-01T09:55:19.802Z,98804.03
2019-06-01T09:57:51.404Z,98804.35
2019-06-01T10:00:23.555Z,98803.54
2019-06-01T10:02:55.123Z,98797.64
2019-06-01T10:05:26.735Z,98799.17
2019-06-01T10:07:58.315Z,98799.50
2019-06-01T10:10:29.976Z,98797.95
2019-06-01T10:13:01.509Z,98795.04
2019-06-01T10:15:34.373Z,98788.70
2019-06-01T10:18:06.108Z,98787.85
2019-06-01T10:20:37.718Z,98780.69
2019-06-01T10:23:09.335Z,98790.52
2019-06-01T10:25:40.917Z,98789.80
2019-06-01T10:28:12.562Z,98785.97
2019-06-01T10:30:44.143Z,98778.31
2019-06-01T10:33:15.757Z,98778.73
2019-06-01T10:35:48.591Z,98774.30
2019-06-01T10:38:20.196Z,98778.73
2019-06-01T10:40:52.855Z,98775.75
2019-06-01T10:43:24.468Z,98776.92
2019-06-01T10:45:57.007Z,98769.45
2019-06-01T10:48:28.621Z,98768.25
2019-06-01T10:51:00.296Z,98763.14
2019-06-01T10:53:32.130Z,98764.70
2019-06-01T10:56:03.650Z,98761.51
2019-06-01T10:58:52.494Z,98757.25
2019-06-01T11:01:08.598Z,98754.70
2019-06-01T11:03:40.744Z,98755.84
2019-06-01T11:06:12.442Z,98753.74
2019-06-01T11:08:44.066Z,98752.15
2019-06-01T11:11:16.794Z,98749.39
2019-06-01T11:13:48.429Z,98749.70
2019-06-01T11:16:21.338Z,98749.53
2019-06-01T11:18:52.944Z,98752.44
2019-06-01T11:21:24.596Z,98747.12
2019-06-01T11:23:56.181Z,98743.08
2019-06-01T11:26:27.823Z,98740.17
2019-06-01T11:28:59.411Z,98734.49
2019-06-01T11:31:31.127Z,98735.13
2019-06-01T11:34:02.725Z,98734.42
2019-06-01T11:36:36.156Z,98729.81
2019-06-01T11:39:08.977Z,98730.80
2019-06-01T11:41:40.748Z,98725.62
2019-06-01T11:44:12.344Z,98719.91
2019-06-01T11:46:45.129Z,98720.40
2019-06-01T11:49:20.554Z,98716.04
2019-06-01T11:51:50.163Z,98713.28
2019-06-01T11:54:21.816Z,98713.01
2019-06-01T11:56:53.416Z,98709.45
2019-06-01T11:59:25.025Z,98706.54
2019-06-01T12:01:56.745Z,98698.63
2019-06-01T12:04:28.326Z,98700.52
2019-06-01T12:07:16.277Z,98701.00
2019-06-01T12:09:33.252Z,98693.98
2019-06-01T12:12:04.893Z,98686.92
2019-06-01T12:14:36.536Z,98690.87
2019-06-01T12:17:08.172Z,98683.00
2019-06-01T12:19:40.730Z,98681.59
2019-06-01T12:22:12.397Z,98674.75
2019-06-01T12:24:45.048Z,98680.92
2019-06-01T12:27:16.679Z,98675.56
2019-06-01T12:29:52.349Z,98670.73
2019-06-01T12:32:21.590Z,98677.25
2019-06-01T12:34:53.226Z,98668.78
2019-06-01T12:37:39.780Z,98665.89
2019-06-01T12:39:58.122Z,98664.33
2019-06-01T12:42:29.706Z,98666.19
2019-06-01T12:45:01.391Z,98660.52
2019-06-01T12:47:33.251Z,98663.27
2019-06-01T12:50:05.032Z,98659.92
2019-06-01T12:52:36.617Z,98659.27
2019-06-01T12:55:08.264Z,98655.38
2019-06-01T12:57:40.747Z,98654.75
2019-06-01T13:00:12.740Z,98650.91
2019-06-01T13:02:48.945Z,98650.48
2019-06-01T13:05:17.886Z,98647.03
2019-06-01T13:07:58.239Z,98647.25
2019-06-01T13:10:22.769Z,98643.27
2019-06-01T13:12:54.333Z,98643.80
2019-06-01T13:15:25.944Z,98639.11
2019-06-01T13:17:57.624Z,98633.14
2019-06-01T13:20:29.271Z,98633.73
2019-06-01T13:23:00.945Z,98629.69
2019-06-01T13:25:32.579Z,98626.80
2019-06-01T13:28:04.196Z,98628.67
2019-06-01T13:30:35.772Z,98624.30
2019-06-01T13:33:07.353Z,98619.55
2019-06-01T13:35:38.940Z,98615.74
2019-06-01T13:38:12.529Z,98611.80
2019-06-01T13:40:44.783Z,98609.48
2019-06-01T13:43:16.530Z,98602.38
2019-06-01T13:45:49.283Z,98608.51
2019-06-01T13:48:21.033Z,98597.42
2019-06-01T13:50:52.605Z,98598.16
2019-06-01T13:53:24.207Z,98593.81
2019-06-01T13:55:55.779Z,98592.78
2019-06-01T13:58:27.376Z,98586.95
2019-06-01T14:00:58.983Z,98583.03
2019-06-01T14:03:31.551Z,98583.19
2019-06-01T14:06:03.115Z,98586.70
2019-06-01T14:08:34.685Z,98578.31
2019-06-01T14:11:06.288Z,98574.05
2019-06-01T14:13:37.838Z,98574.91
2019-06-01T14:16:09.417Z,98570.98
2019-06-01T14:18:41.028Z,98564.85
2019-06-01T14:21:12.737Z,98565.25
2019-06-01T14:23:45.656Z,98559.94
2019-06-01T14:26:17.458Z,98562.56
2019-06-01T14:28:50.155Z,98557.08
2019-06-01T14:31:21.762Z,98554.91
2019-06-01T14:33:54.743Z,98553.85
2019-06-01T14:36:26.443Z,98551.52
2019-06-01T14:38:58.853Z,98545.28
2019-06-01T14:41:30.587Z,98547.48
2019-06-01T14:44:02.232Z,98542.48
2019-06-01T14:46:33.805Z,98538.56
2019-06-01T14:49:05.900Z,98533.22
2019-06-01T14:51:37.494Z,98535.05
2019-06-01T14:54:09.153Z,98537.27
2019-06-01T14:56:40.751Z,98532.41
2019-06-01T14:59:12.328Z,98533.22
2019-06-01T15:01:43.917Z,98532.89
2019-06-01T15:04:15.521Z,98536.51
2019-06-01T15:06:48.188Z,98532.41
2019-06-01T15:09:20.193Z,98533.53
2019-06-01T15:11:52.409Z,98536.83
2019-06-01T15:14:24.089Z,98528.97
2019-06-01T15:16:57.978Z,98528.36
2019-06-01T15:19:29.649Z,98525.86
2019-06-01T15:22:03.351Z,98520.09
2019-06-01T15:24:34.675Z,98520.45
2019-06-01T15:27:06.441Z,98515.50
2019-06-01T15:29:39.711Z,98511.78
2019-06-01T15:32:11.300Z,98507.84
2019-06-01T15:34:42.913Z,98515.98
2019-06-01T15:37:14.503Z,98518.25
2019-06-01T15:39:46.106Z,98507.42
2019-06-01T15:42:17.700Z,98511.88
2019-06-01T15:44:49.370Z,98507.00
2019-06-01T15:47:20.948Z,98513.45
2019-06-01T15:49:53.580Z,98506.33
2019-06-01T15:52:25.212Z,98505.55
2019-06-01T15:54:58.186Z,98500.83
2019-06-01T15:57:29.891Z,98492.84
2019-06-01T16:00:03.004Z,98495.53
2019-06-01T16:02:35.938Z,98492.84
2019-06-01T16:05:08.142Z,98487.59
2019-06-01T16:07:39.763Z,98487.30
2019-06-01T16:10:11.799Z,98488.02
2019-06-01T16:12:43.435Z,98488.20
2019-06-01T16:15:15.585Z,98484.27
2019-06-01T16:17:47.194Z,98486.95
2019-06-01T16:20:18.791Z,98481.48
2019-06-01T16:22:50.406Z,98486.53
2019-06-01T16:25:22.027Z,98477.02
2019-06-01T16:27:54.600Z,98479.29
2019-06-01T16:30:45.431Z,98474.23
2019-06-01T16:33:17.045Z,98475.36
2019-06-01T16:35:48.640Z,98482.08
2019-06-01T16:38:20.202Z,98477.86
2019-06-01T16:40:51.801Z,98479.39
2019-06-01T16:43:23.463Z,98473.94
2019-06-01T16:45:55.601Z,98465.24
2019-06-01T16:48:27.256Z,98472.25
2019-06-01T16:50:59.561Z,98468.03
2019-06-01T16:53:31.159Z,98468.14
2019-06-01T16:56:03.986Z,98469.09
2019-06-01T16:58:35.686Z,98460.92
2019-06-01T17:01:07.318Z,98466.40
2019-06-01T17:03:38.879Z,98464.03
2019-06-01T17:06:10.495Z,98468.16
2019-06-01T17:08:42.086Z,98462.61
2019-06-01T17:11:13.703Z,98462.50
2019-06-01T17:13:45.308Z,98462.10
2019-06-01T17:16:16.921Z,98464.16
2019-06-01T17:18:48.524Z,98465.50
2019-06-01T17:21:20.131Z,98468.90
2019-06-01T17:23:51.751Z,98463.52
2019-06-01T17:26:23.371Z,98459.70
2019-06-01T17:28:55.047Z,98464.58
2019-06-01T17:31:26.632Z,98458.28
2019-06-01T17:33:58.367Z,98454.88
2019-06-01T17:36:29.984Z,98454.77
2019-06-01T17:39:02.015Z,98454.91
2019-06-01T17:41:35.046Z,98451.58
2019-06-01T17:44:06.860Z,98449.02
2019-06-01T17:46:52.351Z,98446.97
2019-06-01T17:49:12.409Z,98453.23
2019-06-01T17:51:44.157Z,98449.92
2019-06-01T17:54:15.784Z,98454.17
2019-06-01T17:56:47.390Z,98448.93
2019-06-01T17:59:19.072Z,98446.95
2019-06-01T18:01:50.694Z,98451.49
2019-06-01T18:04:22.283Z,98449.14
2019-06-01T18:06:54.943Z,98452.64
2019-06-01T18:09:26.682Z,98455.41
2019-06-01T18:11:58.317Z,98450.02
2019-06-01T18:14:29.909Z,98448.88
2019-06-01T18:17:02.148Z,98448.36
2019-06-01T18:19:33.778Z,98449.98
2019-06-01T18:22:06.620Z,98446.16
2019-06-01T18:24:38.448Z,98443.35
2019-06-01T18:27:10.654Z,98445.50
2019-06-01T18:29:48.385Z,98445.17
2019-06-01T18:32:15.684Z,98444.80
2019-06-01T18:34:47.353Z,98446.01
2019-06-01T18:37:19.009Z,98441.33
2019-06-01T18:39:50.617Z,98443.05
2019-06-01T18:42:25.654Z,98443.75
2019-06-01T18:44:57.346Z,98447.89
2019-06-01T18:47:32.480Z,98450.67
2019-06-01T18:50:03.995Z,98448.33
2019-06-01T18:52:35.798Z,98443.85
2019-06-01T18:55:08.548Z,98441.83
2019-06-01T18:57:44.376Z,98445.28
2019-06-01T19:00:16.587Z,98443.48
2019-06-01T19:02:48.250Z,98440.43
2019-06-01T19:05:19.866Z,98439.70
2019-06-01T19:07:51.457Z,98444.35
2019-06-01T19:10:23.571Z,98443.68
2019-06-01T19:12:55.188Z,98442.34
2019-06-01T19:15:28.992Z,98449.55
2019-06-01T19:18:00.179Z,98440.05
2019-06-01T19:20:33.250Z,98443.86
2019-06-01T19:23:06.495Z,98449.49
2019-06-01T19:25:38.326Z,98450.81
2019-06-01T19:28:11.027Z,98450.59
2019-06-01T19:30:43.958Z,98452.09
2019-06-01T19:33:18.752Z,98459.08
2019-06-01T19:35:49.810Z,98463.74
2019-06-01T19:38:22.161Z,98466.08
2019-06-01T19:40:53.780Z,98465.12
2019-06-01T19:43:25.461Z,98466.91
2019-06-01T19:45:57.120Z,98469.52
2019-06-01T19:48:28.695Z,98472.96
2019-06-01T19:51:00.328Z,98470.65
2019-06-01T19:53:31.905Z,98469.70
2019-06-01T19:56:03.498Z,98474.57
2019-06-01T19:58:35.130Z,98473.66
2019-06-01T20:01:06.776Z,98479.70
2019-06-01T20:03:38.374Z,98475.12
2019-06-01T20:06:10.676Z,98484.34
2019-06-01T20:08:42.292Z,98476.92
2019-06-01T20:11:15.028Z,98485.81
2019-06-01T20:13:46.873Z,98480.69
2019-06-01T20:16:20.259Z,98488.04
2019-06-01T20:18:52.032Z,98488.40
2019-06-01T20:21:23.674Z,98486.44
2019-06-01T20:23:55.273Z,98490.95
2019-06-01T20:26:39.652Z,98491.16
2019-06-01T20:29:00.247Z,98499.03
2019-06-01T20:31:31.955Z,98496.03
2019-06-01T20:34:03.582Z,98504.22
2019-06-01T20:36:35.170Z,98501.59
2019-06-01T20:39:09.171Z,98497.09
2019-06-01T20:41:40.885Z,98500.78
2019-06-01T20:44:14.724Z,98500.95
2019-06-01T20:46:46.379Z,98499.30
2019-06-01T20:49:18.582Z,98497.80
2019-06-01T20:51:50.372Z,98500.66
2019-06-01T20:54:23.143Z,98496.83
2019-06-01T20:56:55.947Z,98496.34
2019-06-01T20:59:27.567Z,98502.02
2019-06-01T21:01:59.160Z,98501.19
2019-06-01T21:04:30.821Z,98496.02
2019-06-01T21:07:02.439Z,98499.69
2019-06-01T21:09:34.056Z,98501.00
2019-06-01T21:12:05.662Z,98497.50
2019-06-01T21:14:37.264Z,98491.84
2019-06-01T21:17:08.851Z,98492.34
2019-06-01T21:19:40.486Z,98489.35
2019-06-01T21:22:12.048Z,98490.17
2019-06-01T21:24:43.653Z,98493.99
2019-06-01T21:27:16.480Z,98492.31
2019-06-01T21:29:48.182Z,98502.26
2019-06-01T21:32:21.239Z,98499.58
2019-06-01T21:34:53.033Z,98496.56
2019-06-01T21:37:24.652Z,98500.84
2019-06-01T21:39:56.243Z,98500.17
2019-06-01T21:42:27.921Z,98502.14
2019-06-01T21:44:59.564Z,98500.63
2019-06-01T21:47:31.191Z,98504.23
2019-06-01T21:50:02.772Z,98496.59
2019-06-01T21:52:35.441Z,98495.91
2019-06-01T21:55:07.354Z,98493.06
2019-06-01T21:57:38.927Z,98498.16
2019-06-01T22:00:11.593Z,98494.48
2019-06-01T22:02:44.772Z,98497.27
2019-06-01T22:05:16.813Z,98489.78
2019-06-01T22:07:48.505Z,98495.20
2019-06-01T22:10:21.202Z,98497.66
2019-06-01T22:12:52.792Z,98494.66
2019-06-01T22:15:24.358Z,98494.12
2019-06-01T22:17:55.921Z,98493.58
2019-06-01T22:20:28.219Z,98494.23
2019-06-01T22:22:59.867Z,98497.00
2019-06-01T22:25:31.443Z,98489.86
2019-06-01T22:28:03.008Z,98488.66
2019-06-01T22:30:34.707Z,98491.14
2019-06-01T22:33:06.273Z,98490.78
2019-06-01T22:35:37.856Z,98483.92
2019-06-01T22:38:09.460Z,98479.08
2019-06-01T22:40:41.077Z,98487.34
2019-06-01T22:43:12.718Z,98483.36
2019-06-01T22:45:44.318Z,98479.14
2019-06-01T22:48:16.892Z,98484.08
2019-06-01T22:50:48.451Z,98472.45
2019-06-01T22:53:20.069Z,98479.89
2019-06-01T22:55:52.714Z,98479.48
2019-06-01T22:58:25.298Z,98471.66
2019-06-01T23:00:56.973Z,98469.61
2019-06-01T23:03:28.608Z,98466.75
2019-06-01T23:06:00.198Z,98468.52
2019-06-01T23:08:31.988Z,98466.95
2019-06-01T23:11:03.637Z,98467.08
2019-06-01T23:13:51.909Z,98467.33
2019-06-01T23:16:08.585Z,98463.48
2019-06-01T23:18:40.183Z,98461.75
2019-06-01T23:21:11.786Z,98461.37
2019-06-01T23:23:43.375Z,98462.48
2019-06-01T23:26:14.972Z,98462.06
2019-06-01T23:28:46.550Z,98455.90
2019-06-01T23:31:18.161Z,98460.20
2019-06-01T23:33:49.719Z,98463.75
2019-06-01T23:36:22.499Z,98456.11
2019-06-01T23:38:55.308Z,98460.69
2019-06-01T23:41:26.888Z,98459.31
2019-06-01T23:44:11.114Z,98463.42
2019-06-01T23:46:33.464Z,98453.14
2019-06-01T23:49:05.115Z,98456.58
2019-06-01T23:51:36.717Z,98457.69
2019-06-01T23:54:08.310Z,98453.70
2019-06-01T23:56:39.880Z,98453.63
2019-06-01T23:59:11.488Z,98456.36
